createdAt,value
2023-01-28T00:00:32.250Z,3.00
2023-01-28T00:02:55.001Z,3.50
2023-01-28T00:04:57.179Z,3.97
2023-01-28T00:06:59.950Z,3.27
2023-01-28T00:09:02.059Z,3.47
2023-01-28T00:11:06.547Z,3.07
2023-01-28T00:13:09.902Z,3.23
2023-01-28T00:15:12.705Z,3.33
2023-01-28T00:17:15.457Z,3.47
2023-01-28T00:19:18.199Z,3.20
2023-01-28T00:21:20.271Z,3.63
2023-01-28T00:23:22.691Z,3.10
2023-01-28T00:25:24.765Z,2.83
2023-01-28T00:27:27.127Z,3.43
2023-01-28T00:29:29.261Z,3.77
2023-01-28T00:31:32.699Z,3.37
2023-01-28T00:33:35.235Z,3.13
2023-01-28T00:35:37.606Z,3.67
2023-01-28T00:37:42.102Z,3.03
2023-01-28T00:39:44.883Z,3.00
2023-01-28T00:41:47.062Z,3.10
2023-01-28T00:43:50.043Z,3.83
2023-01-28T00:45:52.137Z,3.77
2023-01-28T00:47:54.582Z,3.70
2023-01-28T00:49:57.443Z,3.10
2023-01-28T00:51:59.960Z,3.30
2023-01-28T00:54:02.472Z,3.70
2023-01-28T00:56:06.595Z,3.70
2023-01-28T00:58:08.693Z,3.80
2023-01-28T01:00:11.611Z,3.60
2023-01-28T01:02:13.817Z,4.13
2023-01-28T01:04:27.093Z,4.00
2023-01-28T01:06:35.601Z,3.60
2023-01-28T01:08:42.859Z,3.83
2023-01-28T01:10:45.441Z,3.43
2023-01-28T01:12:49.570Z,4.27
2023-01-28T01:14:52.069Z,3.60
2023-01-28T01:16:54.910Z,3.90
2023-01-28T01:18:57.369Z,4.00
2023-01-28T01:21:00.789Z,3.93
2023-01-28T01:23:03.269Z,4.37
2023-01-28T01:25:06.652Z,4.17
2023-01-28T01:27:08.780Z,3.60
2023-01-28T01:29:11.672Z,3.10
2023-01-28T01:31:17.696Z,3.83
2023-01-28T01:33:20.640Z,4.03
2023-01-28T01:35:23.162Z,4.03
2023-01-28T01:37:25.646Z,4.07
2023-01-28T01:39:27.791Z,3.33
2023-01-28T01:41:32.989Z,3.50
2023-01-28T01:43:52.342Z,3.73
2023-01-28T01:45:59.315Z,3.85
2023-01-28T01:48:14.616Z,4.63
2023-01-28T01:50:29.771Z,4.50
2023-01-28T01:52:35.363Z,4.37
2023-01-28T01:54:39.438Z,4.83
2023-01-28T01:56:44.731Z,3.93
2023-01-28T01:58:52.755Z,4.50
2023-01-28T02:00:55.594Z,3.60
2023-01-28T02:02:59.028Z,3.20
2023-01-28T02:05:01.606Z,4.47
2023-01-28T02:07:04.342Z,3.80
2023-01-28T02:09:26.064Z,4.00
2023-01-28T02:11:33.133Z,4.90
2023-01-28T02:13:48.799Z,4.57
2023-01-28T02:15:51.710Z,3.50
2023-01-28T02:17:53.953Z,3.67
2023-01-28T02:20:02.402Z,4.40
2023-01-28T02:22:35.595Z,4.00
2023-01-28T02:25:15.264Z,4.30
2023-01-28T02:27:18.037Z,5.22
2023-01-28T02:29:34.575Z,3.87
2023-01-28T02:31:42.734Z,4.07
2023-01-28T02:34:26.616Z,3.83
2023-01-28T02:36:50.609Z,4.83
2023-01-28T02:38:56.269Z,3.40
2023-01-28T02:41:09.876Z,3.53
2023-01-28T02:43:14.645Z,4.47
2023-01-28T02:45:23.450Z,4.73
2023-01-28T02:47:44.247Z,4.00
2023-01-28T02:49:56.839Z,4.37
2023-01-28T02:52:52.369Z,3.87
2023-01-28T02:55:16.853Z,4.20
2023-01-28T02:57:44.364Z,4.00
2023-01-28T02:59:57.665Z,4.40
2023-01-28T03:02:21.290Z,4.13
2023-01-28T03:04:32.144Z,4.30
2023-01-28T03:06:41.148Z,4.00
2023-01-28T03:09:11.200Z,3.80
2023-01-28T03:11:31.955Z,3.93
2023-01-28T03:13:52.859Z,4.33
2023-01-28T03:16:13.603Z,4.30
2023-01-28T03:18:39.263Z,4.60
2023-01-28T03:21:21.277Z,4.27
2023-01-28T03:23:48.184Z,4.30
2023-01-28T03:26:12.775Z,4.43
2023-01-28T03:28:38.750Z,3.80
2023-01-28T03:31:09.700Z,4.43
2023-01-28T03:33:31.421Z,5.17
2023-01-28T03:35:54.700Z,3.90
2023-01-28T03:38:00.274Z,4.13
2023-01-28T03:40:06.201Z,4.17
2023-01-28T03:42:11.436Z,4.20
2023-01-28T03:44:32.631Z,4.80
2023-01-28T03:46:38.067Z,5.30
2023-01-28T03:48:40.935Z,7.50
2023-01-28T03:50:42.999Z,6.07
2023-01-28T03:52:45.389Z,5.57
2023-01-28T03:54:48.661Z,5.27
2023-01-28T03:56:51.406Z,5.17
2023-01-28T03:58:55.280Z,4.87
2023-01-28T04:00:58.285Z,7.93
2023-01-28T04:03:01.159Z,4.77
2023-01-28T04:05:07.087Z,5.17
2023-01-28T04:07:15.505Z,4.27
2023-01-28T04:09:18.016Z,4.40
2023-01-28T04:11:21.521Z,4.13
2023-01-28T04:13:24.267Z,4.40
2023-01-28T04:15:26.523Z,4.67
2023-01-28T04:17:29.278Z,4.90
2023-01-28T04:19:31.808Z,4.63
2023-01-28T04:21:34.503Z,4.43
2023-01-28T04:23:37.087Z,5.77
2023-01-28T04:25:39.802Z,5.07
2023-01-28T04:27:42.301Z,5.13
2023-01-28T04:29:45.085Z,4.97
2023-01-28T04:31:47.586Z,4.33
2023-01-28T04:33:50.730Z,5.77
2023-01-28T04:35:52.852Z,5.20
2023-01-28T04:37:55.600Z,6.10
2023-01-28T04:39:57.647Z,5.63
2023-01-28T04:42:00.452Z,4.97
2023-01-28T04:44:02.520Z,5.33
2023-01-28T04:46:05.333Z,5.23
2023-01-28T04:48:07.395Z,5.80
2023-01-28T04:50:10.101Z,5.17
2023-01-28T04:52:12.593Z,5.20
2023-01-28T04:54:15.340Z,9.03
2023-01-28T04:56:17.394Z,8.87
2023-01-28T04:58:19.814Z,6.00
2023-01-28T05:00:22.105Z,6.17
2023-01-28T05:02:24.881Z,6.87
2023-01-28T05:04:27.381Z,6.10
2023-01-28T05:06:29.744Z,6.90
2023-01-28T05:08:32.233Z,8.27
2023-01-28T05:10:34.596Z,7.43
2023-01-28T05:12:36.649Z,7.87
2023-01-28T05:14:39.012Z,7.50
2023-01-28T05:16:41.138Z,7.13
2023-01-28T05:18:44.849Z,7.77
2023-01-28T05:20:47.632Z,7.63
2023-01-28T05:22:49.990Z,8.67
2023-01-28T05:24:52.144Z,7.30
2023-01-28T05:26:54.919Z,8.00
2023-01-28T05:28:56.985Z,9.37
2023-01-28T05:31:07.232Z,8.47
2023-01-28T05:35:12.131Z,7.27
2023-01-28T05:37:14.636Z,7.30
2023-01-28T05:39:17.069Z,9.77
2023-01-28T05:41:19.549Z,8.63
2023-01-28T05:43:22.012Z,8.80
2023-01-28T05:45:24.161Z,8.03
2023-01-28T05:47:26.562Z,8.17
2023-01-28T05:49:29.049Z,7.63
2023-01-28T05:51:31.856Z,7.07
2023-01-28T05:53:34.013Z,7.33
2023-01-28T05:55:36.426Z,7.37
2023-01-28T05:57:39.007Z,8.63
2023-01-28T05:59:41.738Z,6.93
2023-01-28T06:01:44.253Z,7.27
2023-01-28T06:03:46.613Z,7.17
2023-01-28T06:05:49.242Z,7.63
2023-01-28T06:07:51.745Z,8.00
2023-01-28T06:09:54.221Z,7.00
2023-01-28T06:11:56.606Z,8.30
2023-01-28T06:13:59.161Z,7.93
2023-01-28T06:16:01.790Z,7.33
2023-01-28T06:18:04.185Z,8.97
2023-01-28T06:20:08.583Z,7.80
2023-01-28T06:22:11.019Z,9.20
2023-01-28T06:24:14.278Z,8.97
2023-01-28T06:26:16.805Z,9.17
2023-01-28T06:28:19.275Z,8.13
2023-01-28T06:30:21.783Z,9.10
2023-01-28T06:32:24.586Z,9.93
2023-01-28T06:34:26.766Z,8.20
2023-01-28T06:36:29.165Z,8.53
2023-01-28T06:38:31.247Z,8.83
2023-01-28T06:40:34.179Z,11.27
2023-01-28T06:42:36.297Z,11.10
2023-01-28T06:44:39.064Z,11.37
2023-01-28T06:46:41.532Z,12.27
2023-01-28T06:48:44.456Z,11.43
2023-01-28T06:50:49.642Z,11.47
2023-01-28T06:52:52.402Z,11.43
2023-01-28T06:54:54.475Z,12.00
2023-01-28T06:56:56.896Z,13.20
2023-01-28T06:58:59.120Z,10.67
2023-01-28T07:01:01.503Z,12.20
2023-01-28T07:03:04.327Z,14.27
2023-01-28T07:05:07.452Z,12.77
2023-01-28T07:07:09.986Z,13.07
2023-01-28T07:09:12.354Z,12.50
2023-01-28T07:11:15.097Z,14.03
2023-01-28T07:13:17.514Z,13.33
2023-01-28T07:15:20.023Z,12.53
2023-01-28T07:17:22.494Z,12.77
2023-01-28T07:19:24.986Z,14.23
2023-01-28T07:21:27.325Z,14.07
2023-01-28T07:23:29.481Z,14.50
2023-01-28T07:25:31.896Z,13.63
2023-01-28T07:27:34.397Z,13.70
2023-01-28T07:29:36.844Z,14.63
2023-01-28T07:31:39.419Z,15.33
2023-01-28T07:33:41.860Z,13.67
2023-01-28T07:35:45.266Z,14.83
2023-01-28T07:37:57.521Z,14.30
2023-01-28T07:39:59.746Z,13.83
2023-01-28T07:42:02.408Z,15.53
2023-01-28T07:44:05.035Z,13.80
2023-01-28T07:46:07.473Z,14.90
2023-01-28T07:48:12.145Z,13.90
2023-01-28T07:50:16.172Z,14.23
2023-01-28T07:52:18.434Z,14.20
2023-01-28T07:54:20.853Z,13.23
2023-01-28T07:56:23.124Z,13.17
2023-01-28T07:58:25.487Z,12.37
2023-01-28T08:00:29.533Z,13.40
2023-01-28T08:02:31.973Z,14.47
2023-01-28T08:04:34.766Z,14.23
2023-01-28T08:06:38.007Z,13.43
2023-01-28T08:08:40.153Z,12.87
2023-01-28T08:10:44.215Z,15.03
2023-01-28T08:12:58.900Z,12.87
2023-01-28T08:15:01.893Z,14.33
2023-01-28T08:17:04.068Z,14.17
2023-01-28T08:19:06.497Z,14.17
2023-01-28T08:21:08.965Z,12.77
2023-01-28T08:23:16.881Z,13.67
2023-01-28T08:25:19.335Z,14.17
2023-01-28T08:27:21.788Z,12.37
2023-01-28T08:29:23.855Z,12.97
2023-01-28T08:31:26.256Z,11.83
2023-01-28T08:33:28.390Z,11.87
2023-01-28T08:35:31.273Z,12.17
2023-01-28T08:37:33.798Z,12.73
2023-01-28T08:39:36.595Z,13.23
2023-01-28T08:41:39.051Z,14.40
2023-01-28T08:43:41.487Z,13.87
2023-01-28T08:45:43.663Z,14.90
2023-01-28T08:47:59.030Z,13.23
2023-01-28T08:50:01.528Z,13.30
2023-01-28T08:52:04.046Z,13.17
2023-01-28T08:54:06.644Z,13.67
2023-01-28T08:56:09.214Z,12.87
2023-01-28T08:58:14.297Z,12.00
2023-01-28T09:00:17.415Z,11.97
2023-01-28T09:02:31.195Z,13.80
2023-01-28T09:04:34.962Z,13.37
2023-01-28T09:06:37.403Z,12.57
2023-01-28T09:08:39.818Z,11.00
2023-01-28T09:10:42.407Z,11.57
2023-01-28T09:12:44.851Z,11.47
2023-01-28T09:14:46.929Z,11.67
2023-01-28T09:16:49.701Z,11.90
2023-01-28T09:18:52.168Z,11.90
2023-01-28T09:20:54.961Z,12.60
2023-01-28T09:22:59.859Z,12.03
2023-01-28T09:25:02.648Z,10.90
2023-01-28T09:27:05.166Z,11.87
2023-01-28T09:29:07.696Z,13.07
2023-01-28T09:31:12.205Z,10.57
2023-01-28T09:33:15.082Z,12.63
2023-01-28T09:35:18.168Z,12.20
2023-01-28T09:37:20.565Z,12.70
2023-01-28T09:39:22.707Z,10.67
2023-01-28T09:41:26.859Z,10.90
2023-01-28T09:43:47.966Z,11.63
2023-01-28T09:45:52.776Z,11.60
2023-01-28T09:47:58.280Z,11.37
2023-01-28T09:50:06.219Z,12.37
2023-01-28T09:52:14.648Z,12.47
2023-01-28T09:54:23.228Z,11.87
2023-01-28T09:56:46.829Z,12.77
2023-01-28T09:58:49.317Z,13.10
2023-01-28T10:01:25.345Z,12.03
2023-01-28T10:03:38.766Z,12.00
2023-01-28T10:05:41.327Z,12.50
2023-01-28T10:08:15.479Z,12.03
2023-01-28T10:10:26.471Z,11.93
2023-01-28T10:12:57.126Z,13.53
2023-01-28T10:15:21.167Z,12.43
2023-01-28T10:17:34.883Z,13.63
2023-01-28T10:19:44.246Z,12.90
2023-01-28T10:21:55.293Z,15.18
2023-01-28T10:24:26.088Z,15.17
2023-01-28T10:26:38.138Z,14.83
2023-01-28T10:28:40.408Z,15.47
2023-01-28T10:30:45.392Z,14.63
2023-01-28T10:33:10.629Z,16.63
2023-01-28T10:35:13.407Z,16.00
2023-01-28T10:37:16.467Z,17.40
2023-01-28T10:39:22.588Z,17.63
2023-01-28T10:41:26.852Z,17.97
2023-01-28T10:43:39.207Z,16.10
2023-01-28T10:45:57.917Z,15.70
2023-01-28T10:48:23.396Z,16.87
2023-01-28T10:50:28.328Z,14.77
2023-01-28T10:52:30.788Z,16.63
2023-01-28T10:54:32.903Z,18.00
2023-01-28T10:56:36.616Z,15.67
2023-01-28T10:58:54.785Z,15.27
2023-01-28T11:01:00.131Z,14.47
2023-01-28T11:03:02.775Z,17.13
2023-01-28T11:05:25.630Z,15.87
2023-01-28T11:07:28.100Z,17.47
2023-01-28T11:09:36.356Z,18.17
2023-01-28T11:11:38.463Z,18.97
2023-01-28T11:13:50.730Z,18.60
2023-01-28T11:16:16.705Z,19.47
2023-01-28T11:18:28.667Z,15.70
2023-01-28T11:20:36.120Z,19.20
2023-01-28T11:22:42.251Z,19.27
2023-01-28T11:24:45.018Z,20.53
2023-01-28T11:26:52.316Z,21.20
2023-01-28T11:28:56.144Z,18.10
2023-01-28T11:31:02.590Z,18.90
2023-01-28T11:33:21.907Z,18.47
2023-01-28T11:35:28.374Z,19.60
2023-01-28T11:37:31.680Z,18.57
2023-01-28T11:39:34.599Z,18.07
2023-01-28T11:41:42.197Z,19.70
2023-01-28T11:43:46.011Z,20.13
2023-01-28T11:46:17.617Z,18.43
2023-01-28T11:48:39.001Z,16.80
2023-01-28T11:50:54.405Z,18.60
2023-01-28T11:53:17.017Z,19.07
2023-01-28T11:55:41.248Z,18.27
2023-01-28T11:57:43.811Z,18.57
2023-01-28T11:59:51.779Z,17.90
2023-01-28T12:02:06.480Z,17.63
2023-01-28T12:04:46.800Z,16.43
2023-01-28T12:07:10.870Z,19.87
2023-01-28T12:09:43.579Z,18.70
2023-01-28T12:12:12.918Z,20.37
2023-01-28T12:14:40.752Z,18.67
2023-01-28T12:17:03.299Z,20.50
2023-01-28T12:19:19.804Z,17.00
2023-01-28T12:21:23.804Z,19.37
2023-01-28T12:23:32.379Z,17.83
2023-01-28T12:26:00.587Z,18.93
2023-01-28T12:28:18.376Z,18.63
2023-01-28T12:30:32.913Z,19.53
2023-01-28T12:33:27.543Z,20.40
2023-01-28T12:35:58.605Z,19.47
2023-01-28T12:38:04.729Z,18.27
2023-01-28T12:40:36.459Z,18.07
2023-01-28T12:43:01.645Z,17.47
2023-01-28T12:45:29.860Z,16.70
2023-01-28T12:47:39.483Z,15.30
2023-01-28T12:50:04.550Z,16.17
2023-01-28T12:52:16.044Z,16.57
2023-01-28T12:54:27.621Z,15.97
2023-01-28T12:56:35.626Z,17.43
2023-01-28T12:58:41.314Z,17.03
2023-01-28T13:00:58.243Z,17.40
2023-01-28T13:03:16.149Z,15.07
2023-01-28T13:05:24.113Z,17.33
2023-01-28T13:07:31.324Z,16.93
2023-01-28T13:09:37.344Z,15.00
2023-01-28T13:11:40.887Z,16.07
2023-01-28T13:13:45.495Z,14.77
2023-01-28T13:15:48.616Z,14.93
2023-01-28T13:17:58.776Z,15.80
2023-01-28T13:20:01.268Z,16.57
2023-01-28T13:22:11.761Z,15.20
2023-01-28T13:24:14.231Z,14.60
2023-01-28T13:26:19.459Z,16.17
2023-01-28T13:28:31.742Z,15.27
2023-01-28T13:30:47.050Z,14.73
2023-01-28T13:32:58.727Z,13.70
2023-01-28T13:35:06.121Z,13.43
2023-01-28T13:37:33.085Z,14.07
2023-01-28T13:39:36.994Z,12.83
2023-01-28T13:41:46.801Z,10.43
2023-01-28T13:43:49.319Z,13.65
2023-01-28T13:46:00.281Z,12.97
2023-01-28T13:48:29.929Z,12.90
2023-01-28T13:50:39.372Z,12.20
2023-01-28T13:52:52.997Z,12.17
2023-01-28T13:54:57.921Z,12.87
2023-01-28T13:57:00.514Z,12.13
2023-01-28T13:59:03.235Z,11.93
2023-01-28T14:01:20.767Z,11.43
2023-01-28T14:03:35.184Z,12.43
2023-01-28T14:06:08.875Z,12.73
2023-01-28T14:08:17.461Z,10.37
2023-01-28T14:10:25.411Z,11.83
2023-01-28T14:12:56.575Z,12.13
2023-01-28T14:15:20.322Z,12.83
2023-01-28T14:17:46.913Z,12.07
2023-01-28T14:19:50.864Z,12.23
2023-01-28T14:21:53.931Z,11.83
2023-01-28T14:23:57.884Z,11.57
2023-01-28T14:26:28.319Z,12.30
2023-01-28T14:30:51.736Z,11.83
2023-01-28T14:32:55.066Z,13.27
2023-01-28T14:35:00.634Z,11.73
2023-01-28T14:37:07.870Z,11.43
2023-01-28T14:39:18.578Z,11.30
2023-01-28T14:41:28.001Z,12.87
2023-01-28T14:43:31.392Z,10.48
2023-01-28T14:45:45.458Z,11.37
2023-01-28T14:47:48.190Z,10.77
2023-01-28T14:50:05.259Z,12.73
2023-01-28T14:52:35.539Z,12.83
2023-01-28T14:54:43.142Z,12.25
2023-01-28T14:57:14.932Z,11.33
2023-01-28T14:59:26.119Z,10.90
2023-01-28T15:01:31.074Z,10.57
2023-01-28T15:03:33.688Z,11.33
2023-01-28T15:05:36.190Z,12.10
2023-01-28T15:07:38.378Z,11.93
2023-01-28T15:09:40.925Z,11.13
2023-01-28T15:11:46.142Z,12.60
2023-01-28T15:13:53.033Z,12.27
2023-01-28T15:16:00.793Z,12.50
2023-01-28T15:18:34.180Z,11.80
2023-01-28T15:20:36.738Z,11.27
2023-01-28T15:22:39.753Z,12.60
2023-01-28T15:24:43.819Z,10.33
2023-01-28T15:26:48.142Z,10.97
2023-01-28T15:28:51.245Z,10.93
2023-01-28T15:30:54.141Z,12.27
2023-01-28T15:33:16.978Z,12.37
2023-01-28T15:35:19.494Z,13.53
2023-01-28T15:37:22.511Z,14.10
2023-01-28T15:39:26.870Z,11.83
2023-01-28T15:41:39.411Z,12.40
2023-01-28T15:43:47.179Z,12.13
2023-01-28T15:45:53.336Z,12.73
2023-01-28T15:48:05.576Z,13.13
2023-01-28T15:50:14.885Z,12.13
2023-01-28T15:52:17.585Z,12.38
2023-01-28T15:54:20.693Z,13.93
2023-01-28T15:56:29.438Z,12.30
2023-01-28T15:58:35.264Z,13.37
2023-01-28T16:00:38.369Z,14.23
2023-01-28T16:02:45.706Z,14.00
2023-01-28T16:05:03.257Z,14.13
2023-01-28T16:07:05.849Z,13.57
2023-01-28T16:09:28.273Z,12.37
2023-01-28T16:11:45.171Z,14.40
2023-01-28T16:13:48.019Z,13.80
2023-01-28T16:15:53.234Z,12.40
2023-01-28T16:17:55.884Z,13.27
2023-01-28T16:20:09.721Z,13.43
2023-01-28T16:22:33.239Z,13.87
2023-01-28T16:24:38.803Z,12.83
2023-01-28T16:26:41.215Z,12.53
2023-01-28T16:28:43.398Z,12.33
2023-01-28T16:30:46.301Z,13.93
2023-01-28T16:32:48.860Z,13.57
2023-01-28T16:34:51.701Z,13.90
2023-01-28T16:36:58.251Z,13.33
2023-01-28T16:39:00.661Z,13.70
2023-01-28T16:41:03.081Z,14.27
2023-01-28T16:43:05.907Z,13.07
2023-01-28T16:45:11.570Z,13.53
2023-01-28T16:47:14.688Z,14.80
2023-01-28T16:49:17.086Z,13.63
2023-01-28T16:51:21.014Z,14.27
2023-01-28T16:53:35.102Z,13.57
2023-01-28T16:55:37.917Z,15.13
2023-01-28T16:57:40.639Z,14.30
2023-01-28T16:59:43.314Z,15.10
2023-01-28T17:01:45.791Z,14.27
2023-01-28T17:03:48.741Z,15.00
2023-01-28T17:05:50.914Z,15.57
2023-01-28T17:07:56.425Z,15.07
2023-01-28T17:09:58.961Z,17.23
2023-01-28T17:12:03.527Z,15.93
2023-01-28T17:14:06.079Z,15.53
2023-01-28T17:16:09.220Z,14.93
2023-01-28T17:18:11.718Z,13.00
2023-01-28T17:20:15.698Z,14.50
2023-01-28T17:22:17.829Z,13.73
2023-01-28T17:24:20.729Z,13.67
2023-01-28T17:26:22.989Z,13.10
2023-01-28T17:28:25.500Z,11.67
2023-01-28T17:30:27.881Z,9.27
2023-01-28T17:32:30.600Z,7.13
2023-01-28T17:34:32.716Z,6.63
2023-01-28T17:36:35.235Z,6.00
2023-01-28T17:38:38.163Z,4.83
2023-01-28T17:40:40.738Z,5.83
2023-01-28T17:42:42.892Z,5.00
2023-01-28T17:44:45.786Z,4.87
2023-01-28T17:46:47.984Z,5.27
2023-01-28T17:48:50.781Z,5.63
2023-01-28T17:50:59.155Z,5.00
2023-01-28T17:53:01.852Z,4.77
2023-01-28T17:55:04.688Z,5.00
2023-01-28T17:57:07.359Z,5.60
2023-01-28T17:59:10.290Z,4.40
2023-01-28T18:01:12.745Z,4.83
2023-01-28T18:03:15.633Z,5.07
2023-01-28T18:05:18.458Z,5.97
2023-01-28T18:07:20.911Z,4.90
2023-01-28T18:09:23.532Z,4.97
2023-01-28T18:11:25.818Z,5.60
2023-01-28T18:13:28.729Z,6.40
2023-01-28T18:15:31.051Z,5.33
2023-01-28T18:17:33.712Z,5.90
2023-01-28T18:19:35.829Z,5.20
2023-01-28T18:21:56.952Z,5.90
2023-01-28T18:23:59.194Z,6.70
2023-01-28T18:26:04.631Z,6.53
2023-01-28T18:28:08.659Z,5.73
2023-01-28T18:30:14.381Z,6.37
2023-01-28T18:32:16.473Z,6.70
2023-01-28T18:34:19.122Z,6.57
2023-01-28T18:36:21.254Z,6.83
2023-01-28T18:38:23.793Z,8.23
2023-01-28T18:40:25.943Z,8.37
2023-01-28T18:42:28.419Z,8.20
2023-01-28T18:44:32.302Z,7.73
2023-01-28T18:46:34.703Z,8.37
2023-01-28T18:48:36.941Z,8.50
2023-01-28T18:50:39.370Z,7.43
2023-01-28T18:52:41.986Z,7.20
2023-01-28T18:54:44.643Z,6.83
2023-01-28T18:56:48.667Z,6.87
2023-01-28T18:58:59.035Z,6.50
2023-01-28T19:03:06.741Z,5.63
2023-01-28T19:05:09.463Z,6.63
2023-01-28T19:07:12.413Z,8.23
2023-01-28T19:09:16.582Z,7.03
2023-01-28T19:11:19.362Z,7.97
2023-01-28T19:13:21.561Z,8.23
2023-01-28T19:15:24.111Z,8.70
2023-01-28T19:17:26.670Z,7.40
2023-01-28T19:19:29.079Z,8.90
2023-01-28T19:21:33.459Z,8.63
2023-01-28T19:23:49.232Z,8.47
2023-01-28T19:25:52.561Z,7.83
2023-01-28T19:27:55.321Z,8.07
2023-01-28T19:29:57.492Z,8.57
2023-01-28T19:31:59.946Z,8.03
2023-01-28T19:34:02.148Z,9.17
2023-01-28T19:36:04.972Z,7.90
2023-01-28T19:38:09.244Z,9.67
2023-01-28T19:40:12.376Z,7.87
2023-01-28T19:42:14.934Z,8.60
2023-01-28T19:44:18.216Z,8.07
2023-01-28T19:46:20.669Z,7.67
2023-01-28T19:48:23.600Z,7.13
2023-01-28T19:50:25.752Z,7.27
2023-01-28T19:52:28.190Z,8.63
2023-01-28T19:54:30.271Z,7.90
2023-01-28T19:56:36.176Z,7.30
2023-01-28T19:58:40.500Z,7.83
2023-01-28T20:00:43.298Z,8.57
2023-01-28T20:02:49.734Z,7.43
2023-01-28T20:05:00.682Z,6.77
2023-01-28T20:07:03.558Z,6.70
2023-01-28T20:09:09.158Z,6.80
2023-01-28T20:11:14.182Z,6.80
2023-01-28T20:13:17.085Z,5.67
2023-01-28T20:15:19.211Z,7.00
2023-01-28T20:17:22.073Z,5.23
2023-01-28T20:19:24.198Z,7.10
2023-01-28T20:21:27.584Z,4.90
2023-01-28T20:23:29.777Z,5.57
2023-01-28T20:25:33.282Z,4.67
2023-01-28T20:27:35.853Z,4.53
2023-01-28T20:29:38.340Z,4.73
2023-01-28T20:31:42.313Z,5.00
2023-01-28T20:33:45.301Z,5.00
2023-01-28T20:35:47.768Z,4.97
2023-01-28T20:37:50.583Z,5.70
2023-01-28T20:39:53.120Z,6.07
2023-01-28T20:41:55.814Z,5.50
2023-01-28T20:43:58.369Z,6.37
2023-01-28T20:46:10.659Z,5.70
2023-01-28T20:48:12.892Z,6.33
2023-01-28T20:50:16.098Z,7.97
2023-01-28T20:52:18.994Z,6.77
2023-01-28T20:54:22.149Z,6.80
2023-01-28T20:56:25.903Z,6.17
2023-01-28T20:58:28.748Z,6.87
2023-01-28T21:00:31.294Z,7.60
2023-01-28T21:02:37.688Z,7.03
2023-01-28T21:04:40.214Z,7.10
2023-01-28T21:06:43.054Z,6.63
2023-01-28T21:08:45.860Z,7.17
2023-01-28T21:10:48.395Z,5.73
2023-01-28T21:12:51.010Z,5.80
2023-01-28T21:14:53.556Z,5.17
2023-01-28T21:16:56.133Z,5.77
2023-01-28T21:18:58.641Z,5.67
2023-01-28T21:21:11.987Z,6.50
2023-01-28T21:23:15.757Z,5.97
2023-01-28T21:25:17.908Z,6.97
2023-01-28T21:27:20.331Z,7.40
2023-01-28T21:29:22.820Z,7.00
2023-01-28T21:31:26.621Z,6.23
2023-01-28T21:33:29.104Z,6.33
2023-01-28T21:35:31.775Z,7.70
2023-01-28T21:37:33.897Z,6.97
2023-01-28T21:39:36.319Z,6.83
2023-01-28T21:41:38.781Z,7.13
2023-01-28T21:43:41.612Z,6.80
2023-01-28T21:45:47.715Z,6.47
2023-01-28T21:50:27.785Z,8.67
2023-01-28T21:52:30.582Z,7.37
2023-01-28T21:54:33.015Z,8.17
2023-01-28T21:56:35.540Z,6.37
2023-01-28T21:58:59.641Z,7.47
2023-01-28T22:01:08.633Z,6.70
2023-01-28T22:03:10.766Z,7.07
2023-01-28T22:05:13.164Z,7.30
2023-01-28T22:07:19.195Z,7.50
2023-01-28T22:09:22.091Z,6.50
2023-01-28T22:11:24.335Z,6.87
2023-01-28T22:13:26.786Z,6.03
2023-01-28T22:15:29.221Z,6.40
2023-01-28T22:17:32.032Z,6.50
2023-01-28T22:19:34.112Z,6.50
2023-01-28T22:21:41.113Z,5.90
2023-01-28T22:23:43.469Z,5.87
2023-01-28T22:25:45.838Z,5.67
2023-01-28T22:27:48.438Z,6.33
2023-01-28T22:29:51.938Z,6.97
2023-01-28T22:31:54.821Z,6.90
2023-01-28T22:33:57.720Z,5.10
2023-01-28T22:36:00.089Z,6.07
2023-01-28T22:38:02.580Z,5.93
2023-01-28T22:40:05.258Z,5.73
2023-01-28T22:42:07.645Z,5.27
2023-01-28T22:44:10.274Z,6.47
2023-01-28T22:46:13.456Z,6.07
2023-01-28T22:48:15.985Z,5.20
2023-01-28T22:50:18.803Z,5.83
2023-01-28T22:52:21.238Z,5.00
2023-01-28T22:54:24.066Z,5.30
2023-01-28T22:56:28.262Z,4.53
2023-01-28T22:58:31.782Z,5.40
2023-01-28T23:00:34.520Z,5.20
2023-01-28T23:02:38.213Z,3.77
2023-01-28T23:04:40.576Z,4.83
2023-01-28T23:06:42.956Z,5.10
2023-01-28T23:08:45.449Z,4.90
2023-01-28T23:10:51.008Z,4.63
2023-01-28T23:12:53.817Z,3.93
2023-01-28T23:15:15.488Z,4.90
2023-01-28T23:17:36.253Z,4.53
2023-01-28T23:20:00.735Z,4.10
2023-01-28T23:22:21.819Z,5.43
2023-01-28T23:24:25.053Z,5.57
2023-01-28T23:26:27.779Z,4.33
2023-01-28T23:28:30.603Z,4.20
2023-01-28T23:30:33.392Z,4.47
2023-01-28T23:32:40.714Z,4.43
2023-01-28T23:34:44.705Z,5.23
2023-01-28T23:36:48.677Z,4.67
2023-01-28T23:38:50.747Z,3.90
2023-01-28T23:40:53.136Z,4.70
2023-01-28T23:42:55.870Z,4.33
2023-01-28T23:44:58.738Z,5.20
2023-01-28T23:47:00.873Z,4.63
2023-01-28T23:49:04.791Z,5.17
2023-01-28T23:51:09.411Z,4.60
2023-01-28T23:53:13.362Z,5.30
2023-01-28T23:55:16.125Z,4.03
2023-01-28T23:57:19.204Z,4.17
2023-01-28T23:59:22.142Z,5.13
